sensor_id;sensor_type;location;lat;lon;timestamp;temperature;humidity
67182;DHT22;54114;53.524;49.396;2023-03-14T00:01:25;-0.40;69.00
67182;DHT22;54114;53.524;49.396;2023-03-14T00:03:52;-0.40;69.00
67182;DHT22;54114;53.524;49.396;2023-03-14T00:06:19;-0.40;68.90
67182;DHT22;54114;53.524;49.396;2023-03-14T00:08:46;-0.40;68.90
67182;DHT22;54114;53.524;49.396;2023-03-14T00:11:15;-0.50;68.80
67182;DHT22;54114;53.524;49.396;2023-03-14T00:13:46;-0.50;68.80
67182;DHT22;54114;53.524;49.396;2023-03-14T00:16:15;-0.50;68.80
67182;DHT22;54114;53.524;49.396;2023-03-14T00:18:42;-0.50;68.70
67182;DHT22;54114;53.524;49.396;2023-03-14T00:21:10;-0.60;68.70
67182;DHT22;54114;53.524;49.396;2023-03-14T00:23:39;-0.60;68.70
67182;DHT22;54114;53.524;49.396;2023-03-14T00:26:15;-0.60;68.80
67182;DHT22;54114;53.524;49.396;2023-03-14T00:28:43;-0.60;68.80
67182;DHT22;54114;53.524;49.396;2023-03-14T00:31:13;-0.70;68.70
67182;DHT22;54114;53.524;49.396;2023-03-14T00:33:41;-0.80;68.70
67182;DHT22;54114;53.524;49.396;2023-03-14T00:36:17;-0.80;68.80
67182;DHT22;54114;53.524;49.396;2023-03-14T00:38:48;-0.80;68.90
67182;DHT22;54114;53.524;49.396;2023-03-14T00:41:19;-0.90;68.80
67182;DHT22;54114;53.524;49.396;2023-03-14T00:43:49;-0.90;68.90
67182;DHT22;54114;53.524;49.396;2023-03-14T00:46:16;-1.00;68.80
67182;DHT22;54114;53.524;49.396;2023-03-14T00:48:45;-1.10;68.80
67182;DHT22;54114;53.524;49.396;2023-03-14T00:51:12;-1.10;68.90
67182;DHT22;54114;53.524;49.396;2023-03-14T00:53:41;-1.10;69.00
67182;DHT22;54114;53.524;49.396;2023-03-14T00:56:10;-1.20;69.00
67182;DHT22;54114;53.524;49.396;2023-03-14T00:58:39;-1.20;69.10
67182;DHT22;54114;53.524;49.396;2023-03-14T01:01:08;-1.20;69.10
67182;DHT22;54114;53.524;49.396;2023-03-14T01:03:36;-1.30;69.10
67182;DHT22;54114;53.524;49.396;2023-03-14T01:06:17;-1.30;69.10
67182;DHT22;54114;53.524;49.396;2023-03-14T01:08:46;-1.40;69.20
67182;DHT22;54114;53.524;49.396;2023-03-14T01:11:18;-1.40;69.30
67182;DHT22;54114;53.524;49.396;2023-03-14T01:13:49;-1.40;69.50
67182;DHT22;54114;53.524;49.396;2023-03-14T01:16:17;-1.40;69.40
67182;DHT22;54114;53.524;49.396;2023-03-14T01:18:46;-1.50;69.40
67182;DHT22;54114;53.524;49.396;2023-03-14T01:21:19;-1.50;69.30
67182;DHT22;54114;53.524;49.396;2023-03-14T01:23:53;-1.50;69.30
67182;DHT22;54114;53.524;49.396;2023-03-14T01:26:23;-1.60;69.30
67182;DHT22;54114;53.524;49.396;2023-03-14T01:28:53;-1.60;69.40
67182;DHT22;54114;53.524;49.396;2023-03-14T01:31:20;-1.60;69.50
67182;DHT22;54114;53.524;49.396;2023-03-14T01:33:46;-1.60;69.50
67182;DHT22;54114;53.524;49.396;2023-03-14T01:36:13;-1.70;69.50
67182;DHT22;54114;53.524;49.396;2023-03-14T01:38:41;-1.70;69.50
67182;DHT22;54114;53.524;49.396;2023-03-14T01:41:13;-1.70;69.50
67182;DHT22;54114;53.524;49.396;2023-03-14T01:43:41;-1.70;69.60
67182;DHT22;54114;53.524;49.396;2023-03-14T01:54:20;-1.70;69.60
67182;DHT22;54114;53.524;49.396;2023-03-14T01:57:13;-1.70;69.70
67182;DHT22;54114;53.524;49.396;2023-03-14T02:00:08;-1.70;69.60
67182;DHT22;54114;53.524;49.396;2023-03-14T02:03:07;-1.70;69.60
67182;DHT22;54114;53.524;49.396;2023-03-14T02:05:39;-1.80;69.80
67182;DHT22;54114;53.524;49.396;2023-03-14T02:08:13;-1.80;69.80
67182;DHT22;54114;53.524;49.396;2023-03-14T02:10:59;-1.80;69.90
67182;DHT22;54114;53.524;49.396;2023-03-14T02:13:26;-1.80;70.00
67182;DHT22;54114;53.524;49.396;2023-03-14T02:15:53;-1.80;70.00
67182;DHT22;54114;53.524;49.396;2023-03-14T02:18:19;-1.80;69.90
67182;DHT22;54114;53.524;49.396;2023-03-14T02:24:05;-1.80;69.90
67182;DHT22;54114;53.524;49.396;2023-03-14T02:29:34;-1.90;69.80
67182;DHT22;54114;53.524;49.396;2023-03-14T02:32:03;-1.90;69.80
67182;DHT22;54114;53.524;49.396;2023-03-14T02:34:30;-1.90;69.90
67182;DHT22;54114;53.524;49.396;2023-03-14T02:36:58;-1.90;69.90
67182;DHT22;54114;53.524;49.396;2023-03-14T02:39:30;-2.00;69.90
67182;DHT22;54114;53.524;49.396;2023-03-14T02:42:01;-1.90;70.00
67182;DHT22;54114;53.524;49.396;2023-03-14T02:44:28;-2.00;70.00
67182;DHT22;54114;53.524;49.396;2023-03-14T02:46:55;-1.90;70.10
67182;DHT22;54114;53.524;49.396;2023-03-14T02:49:22;-1.90;70.10
67182;DHT22;54114;53.524;49.396;2023-03-14T02:51:50;-1.90;70.10
67182;DHT22;54114;53.524;49.396;2023-03-14T02:54:17;-1.90;70.00
67182;DHT22;54114;53.524;49.396;2023-03-14T02:56:45;-1.80;70.00
67182;DHT22;54114;53.524;49.396;2023-03-14T02:59:11;-1.80;69.90
67182;DHT22;54114;53.524;49.396;2023-03-14T03:01:38;-1.80;70.00
67182;DHT22;54114;53.524;49.396;2023-03-14T03:04:05;-1.80;70.00
67182;DHT22;54114;53.524;49.396;2023-03-14T03:06:32;-1.70;70.00
67182;DHT22;54114;53.524;49.396;2023-03-14T03:08:58;-1.70;70.00
67182;DHT22;54114;53.524;49.396;2023-03-14T03:11:25;-1.60;70.00
67182;DHT22;54114;53.524;49.396;2023-03-14T03:13:52;-1.50;70.00
67182;DHT22;54114;53.524;49.396;2023-03-14T03:16:18;-1.40;70.00
67182;DHT22;54114;53.524;49.396;2023-03-14T03:18:45;-1.40;69.80
67182;DHT22;54114;53.524;49.396;2023-03-14T03:21:12;-1.30;69.90
67182;DHT22;54114;53.524;49.396;2023-03-14T03:23:39;-1.20;69.90
67182;DHT22;54114;53.524;49.396;2023-03-14T03:26:06;-1.10;69.90
67182;DHT22;54114;53.524;49.396;2023-03-14T03:28:32;-1.10;69.80
67182;DHT22;54114;53.524;49.396;2023-03-14T03:31:05;-1.00;69.80
67182;DHT22;54114;53.524;49.396;2023-03-14T03:33:33;-1.00;69.70
67182;DHT22;54114;53.524;49.396;2023-03-14T03:35:59;-0.90;69.70
67182;DHT22;54114;53.524;49.396;2023-03-14T03:38:26;-0.80;69.70
67182;DHT22;54114;53.524;49.396;2023-03-14T03:40:53;-0.80;69.70
67182;DHT22;54114;53.524;49.396;2023-03-14T03:43:19;-0.70;69.70
67182;DHT22;54114;53.524;49.396;2023-03-14T03:45:46;-0.60;69.60
67182;DHT22;54114;53.524;49.396;2023-03-14T03:48:13;-0.60;70.20
67182;DHT22;54114;53.524;49.396;2023-03-14T03:50:45;-0.50;69.50
67182;DHT22;54114;53.524;49.396;2023-03-14T03:53:12;-0.40;69.50
67182;DHT22;54114;53.524;49.396;2023-03-14T03:55:41;-0.40;69.40
67182;DHT22;54114;53.524;49.396;2023-03-14T03:58:08;-0.30;69.40
67182;DHT22;54114;53.524;49.396;2023-03-14T04:00:35;-0.20;69.30
67182;DHT22;54114;53.524;49.396;2023-03-14T04:03:02;-0.20;69.20
67182;DHT22;54114;53.524;49.396;2023-03-14T04:05:28;-0.10;69.20
67182;DHT22;54114;53.524;49.396;2023-03-14T04:07:55;0.00;69.20
67182;DHT22;54114;53.524;49.396;2023-03-14T04:10:22;0.10;69.10
67182;DHT22;54114;53.524;49.396;2023-03-14T04:12:48;0.20;69.10
67182;DHT22;54114;53.524;49.396;2023-03-14T04:15:15;0.40;69.20
67182;DHT22;54114;53.524;49.396;2023-03-14T04:17:44;0.60;69.10
67182;DHT22;54114;53.524;49.396;2023-03-14T04:20:11;1.00;68.80
67182;DHT22;54114;53.524;49.396;2023-03-14T04:22:38;1.30;68.20
67182;DHT22;54114;53.524;49.396;2023-03-14T04:25:06;1.60;67.80
67182;DHT22;54114;53.524;49.396;2023-03-14T04:27:33;1.80;67.20
67182;DHT22;54114;53.524;49.396;2023-03-14T04:29:59;2.20;66.90
67182;DHT22;54114;53.524;49.396;2023-03-14T04:32:26;2.50;66.30
67182;DHT22;54114;53.524;49.396;2023-03-14T04:34:53;2.80;65.60
67182;DHT22;54114;53.524;49.396;2023-03-14T04:37:20;3.10;64.50
67182;DHT22;54114;53.524;49.396;2023-03-14T04:39:46;3.30;63.20
67182;DHT22;54114;53.524;49.396;2023-03-14T04:42:13;3.50;62.80
67182;DHT22;54114;53.524;49.396;2023-03-14T04:44:39;3.70;61.50
67182;DHT22;54114;53.524;49.396;2023-03-14T04:47:06;3.90;61.20
67182;DHT22;54114;53.524;49.396;2023-03-14T04:49:33;4.20;61.00
67182;DHT22;54114;53.524;49.396;2023-03-14T04:51:59;4.40;59.60
67182;DHT22;54114;53.524;49.396;2023-03-14T04:54:26;4.60;58.60
67182;DHT22;54114;53.524;49.396;2023-03-14T04:56:53;4.90;58.60
67182;DHT22;54114;53.524;49.396;2023-03-14T04:59:19;5.10;57.10
67182;DHT22;54114;53.524;49.396;2023-03-14T05:01:46;5.40;56.80
67182;DHT22;54114;53.524;49.396;2023-03-14T05:04:14;5.60;55.30
67182;DHT22;54114;53.524;49.396;2023-03-14T05:06:41;5.70;55.50
67182;DHT22;54114;53.524;49.396;2023-03-14T05:09:08;5.90;53.60
67182;DHT22;54114;53.524;49.396;2023-03-14T05:11:34;6.10;52.20
67182;DHT22;54114;53.524;49.396;2023-03-14T05:14:01;6.30;51.50
67182;DHT22;54114;53.524;49.396;2023-03-14T05:16:28;6.40;50.80
67182;DHT22;54114;53.524;49.396;2023-03-14T05:18:54;6.50;50.20
67182;DHT22;54114;53.524;49.396;2023-03-14T05:21:21;6.60;49.40
67182;DHT22;54114;53.524;49.396;2023-03-14T05:23:48;6.60;48.80
67182;DHT22;54114;53.524;49.396;2023-03-14T05:26:14;6.70;48.90
67182;DHT22;54114;53.524;49.396;2023-03-14T05:28:42;6.70;48.70
67182;DHT22;54114;53.524;49.396;2023-03-14T05:31:10;6.90;49.00
67182;DHT22;54114;53.524;49.396;2023-03-14T05:33:37;7.00;48.30
67182;DHT22;54114;53.524;49.396;2023-03-14T05:36:04;7.20;47.30
67182;DHT22;54114;53.524;49.396;2023-03-14T05:38:31;7.40;46.50
67182;DHT22;54114;53.524;49.396;2023-03-14T05:40:58;7.50;45.90
67182;DHT22;54114;53.524;49.396;2023-03-14T05:43:24;7.60;45.60
67182;DHT22;54114;53.524;49.396;2023-03-14T05:45:51;7.80;45.00
67182;DHT22;54114;53.524;49.396;2023-03-14T05:48:17;8.00;45.10
67182;DHT22;54114;53.524;49.396;2023-03-14T05:50:44;8.20;44.90
67182;DHT22;54114;53.524;49.396;2023-03-14T05:53:11;8.40;45.00
67182;DHT22;54114;53.524;49.396;2023-03-14T05:55:39;8.60;44.60
67182;DHT22;54114;53.524;49.396;2023-03-14T05:58:06;8.90;43.80
67182;DHT22;54114;53.524;49.396;2023-03-14T06:00:32;9.10;43.20
67182;DHT22;54114;53.524;49.396;2023-03-14T06:02:59;9.30;42.90
67182;DHT22;54114;53.524;49.396;2023-03-14T06:05:26;9.50;42.10
67182;DHT22;54114;53.524;49.396;2023-03-14T06:07:52;9.70;42.00
67182;DHT22;54114;53.524;49.396;2023-03-14T06:10:19;9.90;41.80
67182;DHT22;54114;53.524;49.396;2023-03-14T06:12:46;10.10;41.60
67182;DHT22;54114;53.524;49.396;2023-03-14T06:15:12;10.30;41.10
67182;DHT22;54114;53.524;49.396;2023-03-14T06:17:39;10.60;40.40
67182;DHT22;54114;53.524;49.396;2023-03-14T06:20:06;10.80;39.90
67182;DHT22;54114;53.524;49.396;2023-03-14T06:22:33;11.00;39.50
67182;DHT22;54114;53.524;49.396;2023-03-14T06:25:00;11.20;39.40
67182;DHT22;54114;53.524;49.396;2023-03-14T06:27:27;11.20;39.10
67182;DHT22;54114;53.524;49.396;2023-03-14T06:29:53;11.30;39.10
67182;DHT22;54114;53.524;49.396;2023-03-14T06:32:20;11.50;38.40
67182;DHT22;54114;53.524;49.396;2023-03-14T06:34:46;11.70;38.10
67182;DHT22;54114;53.524;49.396;2023-03-14T06:37:13;12.00;37.70
67182;DHT22;54114;53.524;49.396;2023-03-14T06:39:40;12.20;36.40
67182;DHT22;54114;53.524;49.396;2023-03-14T06:42:07;12.40;36.40
67182;DHT22;54114;53.524;49.396;2023-03-14T06:44:33;12.40;35.90
67182;DHT22;54114;53.524;49.396;2023-03-14T06:47:00;12.40;35.90
67182;DHT22;54114;53.524;49.396;2023-03-14T06:49:27;12.40;35.40
67182;DHT22;54114;53.524;49.396;2023-03-14T06:51:54;12.40;35.40
67182;DHT22;54114;53.524;49.396;2023-03-14T06:54:20;12.60;35.10
67182;DHT22;54114;53.524;49.396;2023-03-14T06:56:47;12.70;34.90
67182;DHT22;54114;53.524;49.396;2023-03-14T06:59:14;12.90;34.40
67182;DHT22;54114;53.524;49.396;2023-03-14T07:01:40;13.00;34.50
67182;DHT22;54114;53.524;49.396;2023-03-14T07:04:08;13.20;34.20
67182;DHT22;54114;53.524;49.396;2023-03-14T07:06:36;13.30;33.90
67182;DHT22;54114;53.524;49.396;2023-03-14T07:09:03;13.40;33.80
67182;DHT22;54114;53.524;49.396;2023-03-14T07:11:30;13.60;33.10
67182;DHT22;54114;53.524;49.396;2023-03-14T07:13:57;13.60;32.70
67182;DHT22;54114;53.524;49.396;2023-03-14T07:16:23;13.60;32.70
67182;DHT22;54114;53.524;49.396;2023-03-14T07:18:54;13.70;32.60
67182;DHT22;54114;53.524;49.396;2023-03-14T07:21:21;13.50;32.60
67182;DHT22;54114;53.524;49.396;2023-03-14T07:23:47;13.40;32.10
67182;DHT22;54114;53.524;49.396;2023-03-14T07:26:14;13.40;32.20
67182;DHT22;54114;53.524;49.396;2023-03-14T07:28:41;13.20;32.50
67182;DHT22;54114;53.524;49.396;2023-03-14T07:31:08;13.10;32.60
67182;DHT22;54114;53.524;49.396;2023-03-14T07:33:34;13.10;32.80
67182;DHT22;54114;53.524;49.396;2023-03-14T07:36:01;13.20;32.80
67182;DHT22;54114;53.524;49.396;2023-03-14T07:38:29;13.20;32.60
67182;DHT22;54114;53.524;49.396;2023-03-14T07:41:04;13.30;32.00
67182;DHT22;54114;53.524;49.396;2023-03-14T07:43:32;13.50;31.70
67182;DHT22;54114;53.524;49.396;2023-03-14T07:45:59;13.70;31.60
67182;DHT22;54114;53.524;49.396;2023-03-14T07:48:26;13.60;32.20
67182;DHT22;54114;53.524;49.396;2023-03-14T07:50:54;13.60;31.90
67182;DHT22;54114;53.524;49.396;2023-03-14T07:53:21;13.60;31.30
67182;DHT22;54114;53.524;49.396;2023-03-14T07:55:50;13.50;31.40
67182;DHT22;54114;53.524;49.396;2023-03-14T07:58:20;13.60;31.50
67182;DHT22;54114;53.524;49.396;2023-03-14T08:00:48;13.70;31.40
67182;DHT22;54114;53.524;49.396;2023-03-14T08:03:15;13.90;31.00
67182;DHT22;54114;53.524;49.396;2023-03-14T08:05:43;14.00;31.20
67182;DHT22;54114;53.524;49.396;2023-03-14T08:08:09;14.10;31.50
67182;DHT22;54114;53.524;49.396;2023-03-14T08:10:36;14.10;31.40
67182;DHT22;54114;53.524;49.396;2023-03-14T08:13:03;14.10;30.90
67182;DHT22;54114;53.524;49.396;2023-03-14T08:15:30;14.20;31.20
67182;DHT22;54114;53.524;49.396;2023-03-14T08:17:57;14.20;31.00
67182;DHT22;54114;53.524;49.396;2023-03-14T08:20:27;14.30;30.30
67182;DHT22;54114;53.524;49.396;2023-03-14T08:23:01;14.30;30.00
67182;DHT22;54114;53.524;49.396;2023-03-14T08:25:28;14.20;30.30
67182;DHT22;54114;53.524;49.396;2023-03-14T08:27:55;14.20;29.90
67182;DHT22;54114;53.524;49.396;2023-03-14T08:30:22;14.30;29.50
67182;DHT22;54114;53.524;49.396;2023-03-14T08:32:49;14.30;29.70
67182;DHT22;54114;53.524;49.396;2023-03-14T08:35:16;14.30;29.90
67182;DHT22;54114;53.524;49.396;2023-03-14T08:37:42;14.40;29.90
67182;DHT22;54114;53.524;49.396;2023-03-14T08:40:10;14.40;29.90
67182;DHT22;54114;53.524;49.396;2023-03-14T08:42:38;14.50;30.00
67182;DHT22;54114;53.524;49.396;2023-03-14T08:45:06;14.40;29.80
67182;DHT22;54114;53.524;49.396;2023-03-14T08:47:34;14.40;30.00
67182;DHT22;54114;53.524;49.396;2023-03-14T08:50:01;14.40;29.70
67182;DHT22;54114;53.524;49.396;2023-03-14T08:52:28;14.30;29.90
67182;DHT22;54114;53.524;49.396;2023-03-14T08:54:56;14.30;29.90
67182;DHT22;54114;53.524;49.396;2023-03-14T08:57:23;14.40;30.00
67182;DHT22;54114;53.524;49.396;2023-03-14T08:59:56;14.50;30.10
67182;DHT22;54114;53.524;49.396;2023-03-14T09:02:25;14.50;30.10
67182;DHT22;54114;53.524;49.396;2023-03-14T09:04:52;14.70;29.70
67182;DHT22;54114;53.524;49.396;2023-03-14T09:07:19;14.90;29.20
67182;DHT22;54114;53.524;49.396;2023-03-14T09:09:46;15.10;28.80
67182;DHT22;54114;53.524;49.396;2023-03-14T09:12:13;15.00;28.80
67182;DHT22;54114;53.524;49.396;2023-03-14T09:14:40;15.00;28.80
67182;DHT22;54114;53.524;49.396;2023-03-14T09:17:06;14.90;29.60
67182;DHT22;54114;53.524;49.396;2023-03-14T09:19:33;14.90;29.00
67182;DHT22;54114;53.524;49.396;2023-03-14T09:22:00;14.80;28.60
67182;DHT22;54114;53.524;49.396;2023-03-14T09:24:27;14.60;28.50
67182;DHT22;54114;53.524;49.396;2023-03-14T09:26:55;14.40;28.90
67182;DHT22;54114;53.524;49.396;2023-03-14T09:29:22;14.40;29.20
67182;DHT22;54114;53.524;49.396;2023-03-14T09:31:50;14.30;29.00
67182;DHT22;54114;53.524;49.396;2023-03-14T09:34:17;14.50;29.30
67182;DHT22;54114;53.524;49.396;2023-03-14T09:36:43;14.50;28.80
67182;DHT22;54114;53.524;49.396;2023-03-14T09:39:11;14.40;28.90
67182;DHT22;54114;53.524;49.396;2023-03-14T09:41:41;14.40;28.80
67182;DHT22;54114;53.524;49.396;2023-03-14T09:44:16;14.40;29.20
67182;DHT22;54114;53.524;49.396;2023-03-14T09:46:53;14.40;28.60
67182;DHT22;54114;53.524;49.396;2023-03-14T09:49:32;14.50;28.70
67182;DHT22;54114;53.524;49.396;2023-03-14T09:52:32;14.50;28.40
67182;DHT22;54114;53.524;49.396;2023-03-14T09:55:04;14.30;28.30
67182;DHT22;54114;53.524;49.396;2023-03-14T09:57:41;14.20;29.40
67182;DHT22;54114;53.524;49.396;2023-03-14T10:00:19;14.10;28.30
67182;DHT22;54114;53.524;49.396;2023-03-14T10:03:35;14.00;28.40
67182;DHT22;54114;53.524;49.396;2023-03-14T10:05:58;14.20;28.50
67182;DHT22;54114;53.524;49.396;2023-03-14T10:08:25;14.40;28.40
67182;DHT22;54114;53.524;49.396;2023-03-14T10:10:52;14.40;28.30
67182;DHT22;54114;53.524;49.396;2023-03-14T10:13:26;14.50;28.40
67182;DHT22;54114;53.524;49.396;2023-03-14T10:15:58;14.60;28.30
67182;DHT22;54114;53.524;49.396;2023-03-14T10:18:30;14.60;28.20
67182;DHT22;54114;53.524;49.396;2023-03-14T10:21:06;14.70;28.30
67182;DHT22;54114;53.524;49.396;2023-03-14T10:23:42;14.70;28.20
67182;DHT22;54114;53.524;49.396;2023-03-14T10:26:28;14.60;27.90
67182;DHT22;54114;53.524;49.396;2023-03-14T10:29:16;14.50;28.40
67182;DHT22;54114;53.524;49.396;2023-03-14T10:32:01;14.60;28.70
67182;DHT22;54114;53.524;49.396;2023-03-14T10:34:38;14.70;28.50
67182;DHT22;54114;53.524;49.396;2023-03-14T10:37:24;14.70;28.30
67182;DHT22;54114;53.524;49.396;2023-03-14T10:40:01;14.70;28.20
67182;DHT22;54114;53.524;49.396;2023-03-14T10:42:42;14.70;28.30
67182;DHT22;54114;53.524;49.396;2023-03-14T10:45:38;14.60;28.50
67182;DHT22;54114;53.524;49.396;2023-03-14T10:53:26;14.40;28.90
67182;DHT22;54114;53.524;49.396;2023-03-14T10:55:55;14.40;28.80
67182;DHT22;54114;53.524;49.396;2023-03-14T10:58:30;14.30;28.80
67182;DHT22;54114;53.524;49.396;2023-03-14T11:04:24;14.30;29.30
67182;DHT22;54114;53.524;49.396;2023-03-14T11:07:27;14.20;28.50
67182;DHT22;54114;53.524;49.396;2023-03-14T11:10:24;14.00;28.80
67182;DHT22;54114;53.524;49.396;2023-03-14T11:16:23;14.00;28.80
67182;DHT22;54114;53.524;49.396;2023-03-14T11:28:01;13.30;27.90
67182;DHT22;54114;53.524;49.396;2023-03-14T11:30:42;13.10;28.10
67182;DHT22;54114;53.524;49.396;2023-03-14T11:33:21;12.80;28.20
67182;DHT22;54114;53.524;49.396;2023-03-14T11:36:21;12.60;28.60
67182;DHT22;54114;53.524;49.396;2023-03-14T11:38:59;12.10;27.90
67182;DHT22;54114;53.524;49.396;2023-03-14T11:41:33;11.70;28.20
67182;DHT22;54114;53.524;49.396;2023-03-14T11:44:10;11.30;28.10
67182;DHT22;54114;53.524;49.396;2023-03-14T11:47:19;10.90;28.30
67182;DHT22;54114;53.524;49.396;2023-03-14T11:50:15;10.40;28.60
67182;DHT22;54114;53.524;49.396;2023-03-14T11:52:54;10.00;29.20
67182;DHT22;54114;53.524;49.396;2023-03-14T11:55:38;9.70;29.70
67182;DHT22;54114;53.524;49.396;2023-03-14T11:58:26;9.40;30.20
67182;DHT22;54114;53.524;49.396;2023-03-14T12:00:55;9.20;31.10
67182;DHT22;54114;53.524;49.396;2023-03-14T12:03:46;8.90;31.60
67182;DHT22;54114;53.524;49.396;2023-03-14T12:06:42;8.80;32.10
67182;DHT22;54114;53.524;49.396;2023-03-14T12:09:21;8.60;32.90
67182;DHT22;54114;53.524;49.396;2023-03-14T12:11:56;8.40;33.40
67182;DHT22;54114;53.524;49.396;2023-03-14T12:14:32;8.30;34.20
67182;DHT22;54114;53.524;49.396;2023-03-14T12:17:07;8.20;34.80
67182;DHT22;54114;53.524;49.396;2023-03-14T12:19:59;8.10;35.60
67182;DHT22;54114;53.524;49.396;2023-03-14T12:22:52;7.90;36.20
67182;DHT22;54114;53.524;49.396;2023-03-14T12:25:24;7.90;37.20
67182;DHT22;54114;53.524;49.396;2023-03-14T12:30:51;7.90;38.00
67182;DHT22;54114;53.524;49.396;2023-03-14T12:35:45;8.00;38.30
67182;DHT22;54114;53.524;49.396;2023-03-14T12:38:32;7.90;38.60
67182;DHT22;54114;53.524;49.396;2023-03-14T12:41:38;7.70;38.60
67182;DHT22;54114;53.524;49.396;2023-03-14T12:49:47;7.30;40.20
67182;DHT22;54114;53.524;49.396;2023-03-14T12:52:20;7.20;39.70
67182;DHT22;54114;53.524;49.396;2023-03-14T12:55:05;7.20;40.10
67182;DHT22;54114;53.524;49.396;2023-03-14T13:00:35;7.40;40.20
67182;DHT22;54114;53.524;49.396;2023-03-14T13:03:22;7.60;40.20
67182;DHT22;54114;53.524;49.396;2023-03-14T13:11:05;7.90;39.80
67182;DHT22;54114;53.524;49.396;2023-03-14T13:13:52;8.10;39.60
67182;DHT22;54114;53.524;49.396;2023-03-14T13:16:23;8.40;39.60
67182;DHT22;54114;53.524;49.396;2023-03-14T13:19:09;8.70;39.30
67182;DHT22;54114;53.524;49.396;2023-03-14T13:22:12;8.90;38.70
67182;DHT22;54114;53.524;49.396;2023-03-14T13:24:42;9.20;38.30
67182;DHT22;54114;53.524;49.396;2023-03-14T13:27:20;9.30;37.40
67182;DHT22;54114;53.524;49.396;2023-03-14T13:29:50;9.30;37.00
67182;DHT22;54114;53.524;49.396;2023-03-14T13:32:20;9.20;36.60
67182;DHT22;54114;53.524;49.396;2023-03-14T13:34:48;9.20;36.40
67182;DHT22;54114;53.524;49.396;2023-03-14T13:37:23;9.10;36.40
67182;DHT22;54114;53.524;49.396;2023-03-14T13:39:56;9.10;36.10
67182;DHT22;54114;53.524;49.396;2023-03-14T13:42:28;8.90;35.80
67182;DHT22;54114;53.524;49.396;2023-03-14T13:44:56;8.80;36.00
67182;DHT22;54114;53.524;49.396;2023-03-14T13:47:25;8.70;36.00
67182;DHT22;54114;53.524;49.396;2023-03-14T13:49:52;8.60;36.00
67182;DHT22;54114;53.524;49.396;2023-03-14T13:52:29;8.40;36.20
67182;DHT22;54114;53.524;49.396;2023-03-14T13:55:14;8.30;36.50
67182;DHT22;54114;53.524;49.396;2023-03-14T13:57:50;8.20;36.70
67182;DHT22;54114;53.524;49.396;2023-03-14T14:00:24;8.00;37.10
67182;DHT22;54114;53.524;49.396;2023-03-14T14:02:57;7.80;37.50
67182;DHT22;54114;53.524;49.396;2023-03-14T14:05:29;7.60;37.80
67182;DHT22;54114;53.524;49.396;2023-03-14T14:07:57;7.40;38.20
67182;DHT22;54114;53.524;49.396;2023-03-14T14:10:26;7.20;38.50
67182;DHT22;54114;53.524;49.396;2023-03-14T14:13:08;6.90;38.80
67182;DHT22;54114;53.524;49.396;2023-03-14T14:15:45;6.80;39.20
67182;DHT22;54114;53.524;49.396;2023-03-14T14:18:16;6.60;39.50
67182;DHT22;54114;53.524;49.396;2023-03-14T14:20:47;6.40;39.90
67182;DHT22;54114;53.524;49.396;2023-03-14T14:23:20;6.30;40.30
67182;DHT22;54114;53.524;49.396;2023-03-14T14:25:52;6.10;40.60
67182;DHT22;54114;53.524;49.396;2023-03-14T14:28:32;6.00;41.10
67182;DHT22;54114;53.524;49.396;2023-03-14T14:33:52;5.70;41.70
67182;DHT22;54114;53.524;49.396;2023-03-14T14:36:36;5.60;42.10
67182;DHT22;54114;53.524;49.396;2023-03-14T14:39:25;5.50;42.20
67182;DHT22;54114;53.524;49.396;2023-03-14T14:41:54;5.40;42.40
67182;DHT22;54114;53.524;49.396;2023-03-14T14:44:37;5.30;42.90
67182;DHT22;54114;53.524;49.396;2023-03-14T14:47:04;5.20;43.00
67182;DHT22;54114;53.524;49.396;2023-03-14T14:49:32;5.10;43.50
67182;DHT22;54114;53.524;49.396;2023-03-14T14:52:03;5.00;43.90
67182;DHT22;54114;53.524;49.396;2023-03-14T14:54:52;4.90;44.00
67182;DHT22;54114;53.524;49.396;2023-03-14T14:57:25;4.90;44.20
67182;DHT22;54114;53.524;49.396;2023-03-14T15:00:02;4.80;44.30
67182;DHT22;54114;53.524;49.396;2023-03-14T15:05:21;4.70;44.90
67182;DHT22;54114;53.524;49.396;2023-03-14T15:07:49;4.70;45.00
67182;DHT22;54114;53.524;49.396;2023-03-14T15:10:19;4.60;45.30
67182;DHT22;54114;53.524;49.396;2023-03-14T15:12:47;4.60;45.70
67182;DHT22;54114;53.524;49.396;2023-03-14T15:15:15;4.50;46.30
67182;DHT22;54114;53.524;49.396;2023-03-14T15:17:43;4.40;46.20
67182;DHT22;54114;53.524;49.396;2023-03-14T15:20:15;4.40;46.30
67182;DHT22;54114;53.524;49.396;2023-03-14T15:22:43;4.30;46.90
67182;DHT22;54114;53.524;49.396;2023-03-14T15:25:10;4.20;46.70
67182;DHT22;54114;53.524;49.396;2023-03-14T15:27:38;4.20;47.20
67182;DHT22;54114;53.524;49.396;2023-03-14T15:30:15;4.20;47.10
67182;DHT22;54114;53.524;49.396;2023-03-14T15:32:42;4.20;47.30
67182;DHT22;54114;53.524;49.396;2023-03-14T15:35:09;4.10;48.10
67182;DHT22;54114;53.524;49.396;2023-03-14T15:37:36;4.10;48.00
67182;DHT22;54114;53.524;49.396;2023-03-14T15:40:04;4.10;48.10
67182;DHT22;54114;53.524;49.396;2023-03-14T15:42:37;4.10;48.30
67182;DHT22;54114;53.524;49.396;2023-03-14T15:45:04;4.10;48.30
67182;DHT22;54114;53.524;49.396;2023-03-14T15:47:31;4.00;48.50
67182;DHT22;54114;53.524;49.396;2023-03-14T15:49:58;4.00;48.50
67182;DHT22;54114;53.524;49.396;2023-03-14T15:52:25;4.00;48.70
67182;DHT22;54114;53.524;49.396;2023-03-14T15:54:51;4.00;48.80
67182;DHT22;54114;53.524;49.396;2023-03-14T15:57:18;4.00;48.90
67182;DHT22;54114;53.524;49.396;2023-03-14T15:59:45;4.00;49.00
67182;DHT22;54114;53.524;49.396;2023-03-14T16:02:11;4.00;49.30
67182;DHT22;54114;53.524;49.396;2023-03-14T16:04:38;4.00;49.70
67182;DHT22;54114;53.524;49.396;2023-03-14T16:07:05;4.00;49.70
67182;DHT22;54114;53.524;49.396;2023-03-14T16:09:31;3.90;49.80
67182;DHT22;54114;53.524;49.396;2023-03-14T16:11:58;3.90;50.50
67182;DHT22;54114;53.524;49.396;2023-03-14T16:14:25;3.90;50.70
67182;DHT22;54114;53.524;49.396;2023-03-14T16:16:52;3.90;51.00
67182;DHT22;54114;53.524;49.396;2023-03-14T16:19:20;3.90;51.20
67182;DHT22;54114;53.524;49.396;2023-03-14T16:21:47;4.00;51.50
67182;DHT22;54114;53.524;49.396;2023-03-14T16:24:14;4.00;51.50
67182;DHT22;54114;53.524;49.396;2023-03-14T16:26:40;4.10;51.70
67182;DHT22;54114;53.524;49.396;2023-03-14T16:29:07;4.10;51.60
67182;DHT22;54114;53.524;49.396;2023-03-14T16:31:34;4.10;51.60
67182;DHT22;54114;53.524;49.396;2023-03-14T16:34:08;4.10;52.00
67182;DHT22;54114;53.524;49.396;2023-03-14T16:36:35;4.10;51.90
67182;DHT22;54114;53.524;49.396;2023-03-14T16:39:02;4.10;52.30
67182;DHT22;54114;53.524;49.396;2023-03-14T16:41:29;4.10;52.10
67182;DHT22;54114;53.524;49.396;2023-03-14T16:43:57;4.10;52.40
67182;DHT22;54114;53.524;49.396;2023-03-14T16:46:24;4.10;52.30